sensor_id;sensor_type;location;lat;lon;timestamp;P1;durP1;ratioP1;P2;durP2;ratioP2
22113;SDS011;11223;49.968;9.062;2023-05-10T00:01:22;2.70;;;2.50;;
22113;SDS011;11223;49.968;9.062;2023-05-10T00:03:48;2.80;;;2.60;;
22113;SDS011;11223;49.968;9.062;2023-05-10T00:06:13;2.40;;;2.20;;
22113;SDS011;11223;49.968;9.062;2023-05-10T00:08:39;2.43;;;2.13;;
22113;SDS011;11223;49.968;9.062;2023-05-10T00:11:05;2.53;;;2.33;;
22113;SDS011;11223;49.968;9.062;2023-05-10T00:13:30;4.23;;;1.43;;
22113;SDS011;11223;49.968;9.062;2023-05-10T00:15:56;2.57;;;1.60;;
22113;SDS011;11223;49.968;9.062;2023-05-10T00:18:22;1.57;;;1.47;;
22113;SDS011;11223;49.968;9.062;2023-05-10T00:20:47;1.77;;;1.50;;
22113;SDS011;11223;49.968;9.062;2023-05-10T00:23:13;1.90;;;1.80;;
22113;SDS011;11223;49.968;9.062;2023-05-10T00:25:39;3.03;;;1.37;;
22113;SDS011;11223;49.968;9.062;2023-05-10T00:28:05;1.50;;;1.10;;
22113;SDS011;11223;49.968;9.062;2023-05-10T00:30:30;1.50;;;1.40;;
22113;SDS011;11223;49.968;9.062;2023-05-10T00:32:56;1.07;;;0.97;;
22113;SDS011;11223;49.968;9.062;2023-05-10T00:35:22;1.37;;;0.93;;
22113;SDS011;11223;49.968;9.062;2023-05-10T00:37:48;1.30;;;1.00;;
22113;SDS011;11223;49.968;9.062;2023-05-10T00:40:13;1.93;;;1.00;;
22113;SDS011;11223;49.968;9.062;2023-05-10T00:42:39;1.40;;;1.13;;
22113;SDS011;11223;49.968;9.062;2023-05-10T00:45:05;1.40;;;1.20;;
22113;SDS011;11223;49.968;9.062;2023-05-10T00:47:31;1.27;;;1.15;;
22113;SDS011;11223;49.968;9.062;2023-05-10T00:49:58;1.55;;;1.30;;
22113;SDS011;11223;49.968;9.062;2023-05-10T00:52:25;5.25;;;1.02;;
22113;SDS011;11223;49.968;9.062;2023-05-10T00:54:52;1.48;;;1.23;;
22113;SDS011;11223;49.968;9.062;2023-05-10T00:57:18;2.83;;;0.80;;
22113;SDS011;11223;49.968;9.062;2023-05-10T00:59:44;1.20;;;1.10;;
22113;SDS011;11223;49.968;9.062;2023-05-10T01:02:10;1.30;;;0.80;;
22113;SDS011;11223;49.968;9.062;2023-05-10T01:04:36;0.90;;;0.80;;
22113;SDS011;11223;49.968;9.062;2023-05-10T01:07:03;1.08;;;0.80;;
22113;SDS011;11223;49.968;9.062;2023-05-10T01:09:29;0.90;;;0.80;;
22113;SDS011;11223;49.968;9.062;2023-05-10T01:11:54;0.90;;;0.90;;
22113;SDS011;11223;49.968;9.062;2023-05-10T01:14:20;0.70;;;0.60;;
22113;SDS011;11223;49.968;9.062;2023-05-10T01:16:47;0.93;;;0.70;;
22113;SDS011;11223;49.968;9.062;2023-05-10T01:19:19;0.82;;;0.70;;
22113;SDS011;11223;49.968;9.062;2023-05-10T01:21:58;0.80;;;0.60;;
22113;SDS011;11223;49.968;9.062;2023-05-10T01:24:49;0.80;;;0.60;;
22113;SDS011;11223;49.968;9.062;2023-05-10T01:27:43;0.80;;;0.70;;
22113;SDS011;11223;49.968;9.062;2023-05-10T01:30:17;0.80;;;0.80;;
22113;SDS011;11223;49.968;9.062;2023-05-10T01:35:55;1.45;;;0.80;;
22113;SDS011;11223;49.968;9.062;2023-05-10T01:41:17;1.15;;;0.73;;
22113;SDS011;11223;49.968;9.062;2023-05-10T01:43:56;0.90;;;0.63;;
22113;SDS011;11223;49.968;9.062;2023-05-10T01:46:31;1.02;;;0.85;;
22113;SDS011;11223;49.968;9.062;2023-05-10T01:49:00;0.80;;;0.60;;
22113;SDS011;11223;49.968;9.062;2023-05-10T01:51:32;1.00;;;0.80;;
22113;SDS011;11223;49.968;9.062;2023-05-10T01:54:04;1.55;;;0.70;;
22113;SDS011;11223;49.968;9.062;2023-05-10T01:56:32;2.47;;;0.70;;
22113;SDS011;11223;49.968;9.062;2023-05-10T01:58:59;3.90;;;0.60;;
22113;SDS011;11223;49.968;9.062;2023-05-10T02:01:30;0.80;;;0.60;;
22113;SDS011;11223;49.968;9.062;2023-05-10T02:03:58;2.55;;;0.60;;
22113;SDS011;11223;49.968;9.062;2023-05-10T02:06:24;1.75;;;0.70;;
22113;SDS011;11223;49.968;9.062;2023-05-10T02:08:52;0.73;;;0.68;;
22113;SDS011;11223;49.968;9.062;2023-05-10T02:11:19;1.77;;;0.82;;
22113;SDS011;11223;49.968;9.062;2023-05-10T02:13:46;1.13;;;0.80;;
22113;SDS011;11223;49.968;9.062;2023-05-10T02:16:14;0.85;;;0.73;;
22113;SDS011;11223;49.968;9.062;2023-05-10T02:18:42;1.40;;;0.85;;
22113;SDS011;11223;49.968;9.062;2023-05-10T02:21:08;1.80;;;1.00;;
22113;SDS011;11223;49.968;9.062;2023-05-10T02:23:36;1.27;;;0.68;;
22113;SDS011;11223;49.968;9.062;2023-05-10T02:26:02;1.00;;;0.93;;
22113;SDS011;11223;49.968;9.062;2023-05-10T02:28:30;1.00;;;0.90;;
22113;SDS011;11223;49.968;9.062;2023-05-10T02:30:57;0.98;;;0.90;;
22113;SDS011;11223;49.968;9.062;2023-05-10T02:33:23;1.83;;;0.95;;
22113;SDS011;11223;49.968;9.062;2023-05-10T02:35:50;0.95;;;0.85;;
22113;SDS011;11223;49.968;9.062;2023-05-10T02:38:17;1.17;;;1.00;;
22113;SDS011;11223;49.968;9.062;2023-05-10T02:40:45;0.95;;;0.90;;
22113;SDS011;11223;49.968;9.062;2023-05-10T02:43:12;1.52;;;1.13;;
22113;SDS011;11223;49.968;9.062;2023-05-10T02:45:41;1.10;;;1.00;;
22113;SDS011;11223;49.968;9.062;2023-05-10T02:48:08;1.08;;;0.98;;
22113;SDS011;11223;49.968;9.062;2023-05-10T02:50:34;1.30;;;1.10;;
22113;SDS011;11223;49.968;9.062;2023-05-10T02:53:06;2.13;;;1.30;;
22113;SDS011;11223;49.968;9.062;2023-05-10T02:55:37;0.90;;;0.80;;
22113;SDS011;11223;49.968;9.062;2023-05-10T02:58:05;1.10;;;1.00;;
22113;SDS011;11223;49.968;9.062;2023-05-10T03:00:31;1.70;;;1.40;;
22113;SDS011;11223;49.968;9.062;2023-05-10T03:02:57;2.10;;;1.00;;
22113;SDS011;11223;49.968;9.062;2023-05-10T03:05:23;1.80;;;1.40;;
22113;SDS011;11223;49.968;9.062;2023-05-10T03:07:48;2.20;;;1.20;;
22113;SDS011;11223;49.968;9.062;2023-05-10T03:10:14;1.15;;;1.05;;
22113;SDS011;11223;49.968;9.062;2023-05-10T03:17:45;1.37;;;1.07;;
22113;SDS011;11223;49.968;9.062;2023-05-10T03:20:25;1.92;;;1.83;;
22113;SDS011;11223;49.968;9.062;2023-05-10T03:23:02;1.67;;;1.58;;
22113;SDS011;11223;49.968;9.062;2023-05-10T03:25:32;2.28;;;2.08;;
22113;SDS011;11223;49.968;9.062;2023-05-10T03:27:59;1.90;;;1.80;;
22113;SDS011;11223;49.968;9.062;2023-05-10T03:30:26;1.60;;;1.50;;
22113;SDS011;11223;49.968;9.062;2023-05-10T03:32:53;2.40;;;2.05;;
22113;SDS011;11223;49.968;9.062;2023-05-10T03:35:19;1.90;;;1.63;;
22113;SDS011;11223;49.968;9.062;2023-05-10T03:37:44;2.23;;;2.03;;
22113;SDS011;11223;49.968;9.062;2023-05-10T03:40:10;3.43;;;2.67;;
22113;SDS011;11223;49.968;9.062;2023-05-10T03:42:36;2.97;;;2.20;;
22113;SDS011;11223;49.968;9.062;2023-05-10T03:45:02;1.50;;;1.40;;
22113;SDS011;11223;49.968;9.062;2023-05-10T03:47:27;1.40;;;1.30;;
22113;SDS011;11223;49.968;9.062;2023-05-10T03:49:54;1.67;;;1.58;;
22113;SDS011;11223;49.968;9.062;2023-05-10T03:52:20;2.30;;;2.10;;
22113;SDS011;11223;49.968;9.062;2023-05-10T03:54:45;2.17;;;1.97;;
22113;SDS011;11223;49.968;9.062;2023-05-10T03:57:11;2.27;;;2.10;;
22113;SDS011;11223;49.968;9.062;2023-05-10T03:59:36;2.27;;;1.60;;
22113;SDS011;11223;49.968;9.062;2023-05-10T04:02:02;1.37;;;1.27;;
22113;SDS011;11223;49.968;9.062;2023-05-10T04:04:27;1.63;;;1.53;;
22113;SDS011;11223;49.968;9.062;2023-05-10T04:06:53;1.87;;;1.73;;
22113;SDS011;11223;49.968;9.062;2023-05-10T04:09:19;1.60;;;1.50;;
22113;SDS011;11223;49.968;9.062;2023-05-10T04:11:45;1.90;;;1.80;;
22113;SDS011;11223;49.968;9.062;2023-05-10T04:14:11;1.70;;;1.60;;
22113;SDS011;11223;49.968;9.062;2023-05-10T04:16:36;1.60;;;1.50;;
22113;SDS011;11223;49.968;9.062;2023-05-10T04:19:02;2.17;;;2.00;;
22113;SDS011;11223;49.968;9.062;2023-05-10T04:21:28;1.88;;;1.77;;
22113;SDS011;11223;49.968;9.062;2023-05-10T04:23:54;1.60;;;1.50;;
22113;SDS011;11223;49.968;9.062;2023-05-10T04:26:20;2.00;;;1.90;;
22113;SDS011;11223;49.968;9.062;2023-05-10T04:28:45;2.00;;;1.90;;
22113;SDS011;11223;49.968;9.062;2023-05-10T04:31:11;1.63;;;1.53;;
22113;SDS011;11223;49.968;9.062;2023-05-10T04:33:37;1.90;;;1.65;;
22113;SDS011;11223;49.968;9.062;2023-05-10T04:36:02;1.60;;;1.40;;
22113;SDS011;11223;49.968;9.062;2023-05-10T04:38:29;1.83;;;1.73;;
22113;SDS011;11223;49.968;9.062;2023-05-10T04:40:54;2.03;;;1.93;;
22113;SDS011;11223;49.968;9.062;2023-05-10T04:43:28;1.85;;;1.75;;
22113;SDS011;11223;49.968;9.062;2023-05-10T04:45:55;1.97;;;1.87;;
22113;SDS011;11223;49.968;9.062;2023-05-10T04:48:21;1.75;;;1.65;;
22113;SDS011;11223;49.968;9.062;2023-05-10T04:50:47;2.10;;;1.80;;
22113;SDS011;11223;49.968;9.062;2023-05-10T04:53:13;1.70;;;1.60;;
22113;SDS011;11223;49.968;9.062;2023-05-10T04:55:38;1.70;;;1.60;;
22113;SDS011;11223;49.968;9.062;2023-05-10T04:58:04;2.07;;;1.93;;
22113;SDS011;11223;49.968;9.062;2023-05-10T05:00:29;2.03;;;1.83;;
22113;SDS011;11223;49.968;9.062;2023-05-10T05:02:55;2.70;;;1.90;;
22113;SDS011;11223;49.968;9.062;2023-05-10T05:05:20;2.00;;;1.80;;
22113;SDS011;11223;49.968;9.062;2023-05-10T05:07:46;2.37;;;2.17;;
22113;SDS011;11223;49.968;9.062;2023-05-10T05:10:12;2.23;;;2.10;;
22113;SDS011;11223;49.968;9.062;2023-05-10T05:12:37;1.67;;;1.57;;
22113;SDS011;11223;49.968;9.062;2023-05-10T05:15:03;1.70;;;1.60;;
22113;SDS011;11223;49.968;9.062;2023-05-10T05:17:31;1.43;;;1.33;;
22113;SDS011;11223;49.968;9.062;2023-05-10T05:19:57;1.58;;;1.48;;
22113;SDS011;11223;49.968;9.062;2023-05-10T05:22:23;2.93;;;2.00;;
22113;SDS011;11223;49.968;9.062;2023-05-10T05:24:55;2.53;;;2.10;;
22113;SDS011;11223;49.968;9.062;2023-05-10T05:27:21;2.55;;;2.35;;
22113;SDS011;11223;49.968;9.062;2023-05-10T05:29:49;1.92;;;1.83;;
22113;SDS011;11223;49.968;9.062;2023-05-10T05:32:16;2.97;;;2.70;;
22113;SDS011;11223;49.968;9.062;2023-05-10T05:34:41;2.20;;;2.00;;
22113;SDS011;11223;49.968;9.062;2023-05-10T05:37:12;2.55;;;2.35;;
22113;SDS011;11223;49.968;9.062;2023-05-10T05:39:39;3.00;;;2.10;;
22113;SDS011;11223;49.968;9.062;2023-05-10T05:42:05;2.90;;;2.10;;
22113;SDS011;11223;49.968;9.062;2023-05-10T05:44:30;2.13;;;2.03;;
22113;SDS011;11223;49.968;9.062;2023-05-10T05:46:56;1.83;;;1.73;;
22113;SDS011;11223;49.968;9.062;2023-05-10T05:49:21;2.53;;;2.07;;
22113;SDS011;11223;49.968;9.062;2023-05-10T05:51:47;2.33;;;2.07;;
22113;SDS011;11223;49.968;9.062;2023-05-10T05:54:14;2.85;;;2.55;;
22113;SDS011;11223;49.968;9.062;2023-05-10T05:56:40;2.90;;;2.70;;
22113;SDS011;11223;49.968;9.062;2023-05-10T05:59:05;2.70;;;2.50;;
22113;SDS011;11223;49.968;9.062;2023-05-10T06:01:31;2.43;;;2.33;;
22113;SDS011;11223;49.968;9.062;2023-05-10T06:03:56;2.50;;;1.90;;
22113;SDS011;11223;49.968;9.062;2023-05-10T06:06:22;2.20;;;2.10;;
22113;SDS011;11223;49.968;9.062;2023-05-10T06:08:47;3.23;;;2.20;;
22113;SDS011;11223;49.968;9.062;2023-05-10T06:11:13;2.67;;;2.47;;
22113;SDS011;11223;49.968;9.062;2023-05-10T06:13:39;2.43;;;2.23;;
22113;SDS011;11223;49.968;9.062;2023-05-10T06:16:04;3.63;;;2.50;;
22113;SDS011;11223;49.968;9.062;2023-05-10T06:18:30;2.30;;;2.10;;
22113;SDS011;11223;49.968;9.062;2023-05-10T06:20:56;2.70;;;2.30;;
22113;SDS011;11223;49.968;9.062;2023-05-10T06:23:22;3.90;;;2.67;;
22113;SDS011;11223;49.968;9.062;2023-05-10T06:25:48;4.13;;;2.87;;
22113;SDS011;11223;49.968;9.062;2023-05-10T06:28:13;2.63;;;2.20;;
22113;SDS011;11223;49.968;9.062;2023-05-10T06:30:39;2.50;;;2.13;;
22113;SDS011;11223;49.968;9.062;2023-05-10T06:33:04;2.73;;;2.50;;
22113;SDS011;11223;49.968;9.062;2023-05-10T06:35:30;2.37;;;2.17;;
22113;SDS011;11223;49.968;9.062;2023-05-10T06:37:58;2.67;;;2.45;;
22113;SDS011;11223;49.968;9.062;2023-05-10T06:40:24;2.57;;;2.30;;
22113;SDS011;11223;49.968;9.062;2023-05-10T06:42:49;2.83;;;2.50;;
22113;SDS011;11223;49.968;9.062;2023-05-10T06:45:15;2.60;;;2.40;;
22113;SDS011;11223;49.968;9.062;2023-05-10T06:47:41;2.40;;;2.20;;
22113;SDS011;11223;49.968;9.062;2023-05-10T06:50:08;2.75;;;2.40;;
22113;SDS011;11223;49.968;9.062;2023-05-10T06:52:34;4.20;;;2.67;;
22113;SDS011;11223;49.968;9.062;2023-05-10T06:55:00;2.33;;;2.13;;
22113;SDS011;11223;49.968;9.062;2023-05-10T06:57:26;4.63;;;1.80;;
22113;SDS011;11223;49.968;9.062;2023-05-10T06:59:52;2.97;;;2.50;;
22113;SDS011;11223;49.968;9.062;2023-05-10T07:02:18;1.90;;;1.70;;
22113;SDS011;11223;49.968;9.062;2023-05-10T07:04:43;2.90;;;2.43;;
22113;SDS011;11223;49.968;9.062;2023-05-10T07:07:09;2.10;;;1.90;;
22113;SDS011;11223;49.968;9.062;2023-05-10T07:09:35;2.33;;;2.13;;
22113;SDS011;11223;49.968;9.062;2023-05-10T07:12:00;2.17;;;2.00;;
22113;SDS011;11223;49.968;9.062;2023-05-10T07:14:26;2.10;;;1.90;;
22113;SDS011;11223;49.968;9.062;2023-05-10T07:16:52;2.80;;;2.33;;
22113;SDS011;11223;49.968;9.062;2023-05-10T07:19:18;2.30;;;2.10;;
22113;SDS011;11223;49.968;9.062;2023-05-10T07:21:44;3.03;;;2.83;;
22113;SDS011;11223;49.968;9.062;2023-05-10T07:24:10;2.20;;;2.00;;
22113;SDS011;11223;49.968;9.062;2023-05-10T07:26:35;2.70;;;2.50;;
22113;SDS011;11223;49.968;9.062;2023-05-10T07:29:01;5.73;;;2.00;;
22113;SDS011;11223;49.968;9.062;2023-05-10T07:31:27;4.72;;;2.10;;
22113;SDS011;11223;49.968;9.062;2023-05-10T07:33:53;2.10;;;1.90;;
22113;SDS011;11223;49.968;9.062;2023-05-10T07:36:18;1.90;;;1.70;;
22113;SDS011;11223;49.968;9.062;2023-05-10T07:38:44;2.27;;;2.03;;
22113;SDS011;11223;49.968;9.062;2023-05-10T07:41:11;3.10;;;2.80;;
22113;SDS011;11223;49.968;9.062;2023-05-10T07:43:37;2.60;;;2.40;;
22113;SDS011;11223;49.968;9.062;2023-05-10T07:46:02;3.03;;;2.43;;
22113;SDS011;11223;49.968;9.062;2023-05-10T07:48:28;2.60;;;2.40;;
22113;SDS011;11223;49.968;9.062;2023-05-10T07:50:53;2.60;;;1.70;;
22113;SDS011;11223;49.968;9.062;2023-05-10T07:53:19;3.53;;;2.43;;
22113;SDS011;11223;49.968;9.062;2023-05-10T07:55:49;3.97;;;2.50;;
22113;SDS011;11223;49.968;9.062;2023-05-10T07:58:16;2.85;;;2.05;;
22113;SDS011;11223;49.968;9.062;2023-05-10T08:00:42;3.57;;;2.60;;
22113;SDS011;11223;49.968;9.062;2023-05-10T08:03:07;2.83;;;2.63;;
22113;SDS011;11223;49.968;9.062;2023-05-10T08:05:33;2.03;;;1.90;;
22113;SDS011;11223;49.968;9.062;2023-05-10T08:07:58;2.00;;;1.87;;
22113;SDS011;11223;49.968;9.062;2023-05-10T08:10:24;2.07;;;1.87;;
22113;SDS011;11223;49.968;9.062;2023-05-10T08:12:50;4.30;;;2.45;;
22113;SDS011;11223;49.968;9.062;2023-05-10T08:15:16;2.97;;;2.50;;
22113;SDS011;11223;49.968;9.062;2023-05-10T08:17:41;4.27;;;2.50;;
22113;SDS011;11223;49.968;9.062;2023-05-10T08:20:08;2.38;;;2.17;;
22113;SDS011;11223;49.968;9.062;2023-05-10T08:22:33;2.92;;;2.63;;
22113;SDS011;11223;49.968;9.062;2023-05-10T08:24:59;3.30;;;2.87;;
22113;SDS011;11223;49.968;9.062;2023-05-10T08:27:25;3.90;;;2.47;;
22113;SDS011;11223;49.968;9.062;2023-05-10T08:29:50;3.47;;;2.40;;
22113;SDS011;11223;49.968;9.062;2023-05-10T08:32:16;2.53;;;2.33;;
22113;SDS011;11223;49.968;9.062;2023-05-10T08:34:42;3.10;;;2.53;;
22113;SDS011;11223;49.968;9.062;2023-05-10T08:37:08;2.50;;;2.30;;
22113;SDS011;11223;49.968;9.062;2023-05-10T08:39:35;3.17;;;2.20;;
22113;SDS011;11223;49.968;9.062;2023-05-10T08:42:01;3.40;;;2.70;;
22113;SDS011;11223;49.968;9.062;2023-05-10T08:44:30;2.78;;;2.58;;
22113;SDS011;11223;49.968;9.062;2023-05-10T08:46:57;3.15;;;2.63;;
22113;SDS011;11223;49.968;9.062;2023-05-10T08:49:24;2.78;;;2.50;;
22113;SDS011;11223;49.968;9.062;2023-05-10T08:51:53;4.38;;;2.47;;
22113;SDS011;11223;49.968;9.062;2023-05-10T08:54:20;4.22;;;2.92;;
22113;SDS011;11223;49.968;9.062;2023-05-10T08:56:46;3.63;;;2.10;;
22113;SDS011;11223;49.968;9.062;2023-05-10T08:59:12;4.90;;;3.10;;
22113;SDS011;11223;49.968;9.062;2023-05-10T09:01:38;2.63;;;2.42;;
22113;SDS011;11223;49.968;9.062;2023-05-10T09:04:05;2.80;;;2.50;;
22113;SDS011;11223;49.968;9.062;2023-05-10T09:06:30;2.30;;;2.10;;
22113;SDS011;11223;49.968;9.062;2023-05-10T09:08:57;4.38;;;2.50;;
22113;SDS011;11223;49.968;9.062;2023-05-10T09:11:23;2.53;;;2.33;;
22113;SDS011;11223;49.968;9.062;2023-05-10T09:13:49;2.30;;;2.13;;
22113;SDS011;11223;49.968;9.062;2023-05-10T09:16:17;3.35;;;2.60;;
22113;SDS011;11223;49.968;9.062;2023-05-10T09:18:42;3.00;;;2.47;;
22113;SDS011;11223;49.968;9.062;2023-05-10T09:21:08;2.63;;;2.43;;
22113;SDS011;11223;49.968;9.062;2023-05-10T09:23:35;2.05;;;1.88;;
22113;SDS011;11223;49.968;9.062;2023-05-10T09:26:07;2.63;;;2.30;;
22113;SDS011;11223;49.968;9.062;2023-05-10T09:28:54;1.80;;;1.70;;
22113;SDS011;11223;49.968;9.062;2023-05-10T09:31:20;5.70;;;2.42;;
22113;SDS011;11223;49.968;9.062;2023-05-10T09:33:47;1.88;;;1.77;;
22113;SDS011;11223;49.968;9.062;2023-05-10T09:36:13;3.60;;;2.10;;
22113;SDS011;11223;49.968;9.062;2023-05-10T09:38:50;2.88;;;2.65;;
22113;SDS011;11223;49.968;9.062;2023-05-10T09:41:17;1.52;;;1.42;;
22113;SDS011;11223;49.968;9.062;2023-05-10T09:43:43;1.88;;;1.77;;
22113;SDS011;11223;49.968;9.062;2023-05-10T09:46:09;2.40;;;1.77;;
22113;SDS011;11223;49.968;9.062;2023-05-10T09:48:39;1.73;;;1.63;;
22113;SDS011;11223;49.968;9.062;2023-05-10T09:51:10;6.20;;;1.92;;
22113;SDS011;11223;49.968;9.062;2023-05-10T09:53:47;1.85;;;1.42;;
22113;SDS011;11223;49.968;9.062;2023-05-10T09:56:32;1.48;;;1.38;;
22113;SDS011;11223;49.968;9.062;2023-05-10T09:59:02;2.03;;;1.92;;
22113;SDS011;11223;49.968;9.062;2023-05-10T10:01:28;1.40;;;1.30;;
22113;SDS011;11223;49.968;9.062;2023-05-10T10:03:55;1.90;;;1.80;;
22113;SDS011;11223;49.968;9.062;2023-05-10T10:06:22;2.95;;;2.05;;
22113;SDS011;11223;49.968;9.062;2023-05-10T10:08:48;2.40;;;2.17;;
22113;SDS011;11223;49.968;9.062;2023-05-10T10:11:15;2.08;;;1.67;;
22113;SDS011;11223;49.968;9.062;2023-05-10T10:13:41;3.13;;;2.20;;
22113;SDS011;11223;49.968;9.062;2023-05-10T10:16:07;1.97;;;1.87;;
22113;SDS011;11223;49.968;9.062;2023-05-10T10:18:33;2.20;;;2.00;;
22113;SDS011;11223;49.968;9.062;2023-05-10T10:21:03;2.22;;;1.77;;
22113;SDS011;11223;49.968;9.062;2023-05-10T10:23:34;1.90;;;1.80;;
22113;SDS011;11223;49.968;9.062;2023-05-10T10:26:01;2.00;;;1.90;;
22113;SDS011;11223;49.968;9.062;2023-05-10T10:28:36;1.88;;;1.77;;
22113;SDS011;11223;49.968;9.062;2023-05-10T10:31:20;2.17;;;1.98;;
22113;SDS011;11223;49.968;9.062;2023-05-10T10:34:09;2.08;;;1.98;;
22113;SDS011;11223;49.968;9.062;2023-05-10T10:36:45;2.42;;;1.80;;
22113;SDS011;11223;49.968;9.062;2023-05-10T10:39:12;1.42;;;1.33;;
22113;SDS011;11223;49.968;9.062;2023-05-10T10:41:39;6.15;;;1.80;;
22113;SDS011;11223;49.968;9.062;2023-05-10T10:49:52;2.78;;;2.25;;
22113;SDS011;11223;49.968;9.062;2023-05-10T10:57:53;2.47;;;1.05;;
22113;SDS011;11223;49.968;9.062;2023-05-10T11:02:59;1.38;;;1.27;;
22113;SDS011;11223;49.968;9.062;2023-05-10T11:05:41;3.50;;;1.05;;
22113;SDS011;11223;49.968;9.062;2023-05-10T11:10:50;1.20;;;1.10;;
22113;SDS011;11223;49.968;9.062;2023-05-10T11:13:28;1.15;;;1.02;;
22113;SDS011;11223;49.968;9.062;2023-05-10T11:21:47;2.08;;;1.40;;
22113;SDS011;11223;49.968;9.062;2023-05-10T11:24:15;1.90;;;1.80;;
22113;SDS011;11223;49.968;9.062;2023-05-10T11:26:43;1.42;;;1.33;;
22113;SDS011;11223;49.968;9.062;2023-05-10T11:29:08;2.70;;;1.43;;
22113;SDS011;11223;49.968;9.062;2023-05-10T11:31:34;2.80;;;1.40;;
22113;SDS011;11223;49.968;9.062;2023-05-10T11:34:06;3.97;;;1.45;;
22113;SDS011;11223;49.968;9.062;2023-05-10T11:36:32;1.40;;;1.30;;
22113;SDS011;11223;49.968;9.062;2023-05-10T11:39:01;1.45;;;1.15;;
22113;SDS011;11223;49.968;9.062;2023-05-10T11:41:28;1.70;;;1.45;;
22113;SDS011;11223;49.968;9.062;2023-05-10T11:43:55;1.30;;;1.20;;
22113;SDS011;11223;49.968;9.062;2023-05-10T11:46:22;1.50;;;1.40;;
22113;SDS011;11223;49.968;9.062;2023-05-10T11:48:50;2.90;;;2.10;;
22113;SDS011;11223;49.968;9.062;2023-05-10T11:51:20;1.40;;;1.30;;
22113;SDS011;11223;49.968;9.062;2023-05-10T11:53:47;1.25;;;1.15;;
22113;SDS011;11223;49.968;9.062;2023-05-10T11:56:13;1.92;;;1.40;;
22113;SDS011;11223;49.968;9.062;2023-05-10T11:58:39;1.77;;;1.40;;
22113;SDS011;11223;49.968;9.062;2023-05-10T12:01:05;1.60;;;1.10;;
22113;SDS011;11223;49.968;9.062;2023-05-10T12:03:32;1.40;;;1.30;;
22113;SDS011;11223;49.968;9.062;2023-05-10T12:05:59;1.65;;;1.20;;
22113;SDS011;11223;49.968;9.062;2023-05-10T12:08:26;1.85;;;1.58;;
22113;SDS011;11223;49.968;9.062;2023-05-10T12:11:08;1.27;;;1.17;;
22113;SDS011;11223;49.968;9.062;2023-05-10T12:13:39;1.40;;;1.30;;
22113;SDS011;11223;49.968;9.062;2023-05-10T12:16:15;2.03;;;1.60;;
22113;SDS011;11223;49.968;9.062;2023-05-10T12:18:42;1.40;;;1.25;;
22113;SDS011;11223;49.968;9.062;2023-05-10T12:21:11;1.35;;;1.25;;
22113;SDS011;11223;49.968;9.062;2023-05-10T12:23:37;1.95;;;1.38;;
22113;SDS011;11223;49.968;9.062;2023-05-10T12:26:04;1.50;;;1.40;;
22113;SDS011;11223;49.968;9.062;2023-05-10T12:28:31;1.63;;;1.42;;
22113;SDS011;11223;49.968;9.062;2023-05-10T12:30:57;1.73;;;1.50;;
22113;SDS011;11223;49.968;9.062;2023-05-10T12:33:24;1.38;;;1.27;;
22113;SDS011;11223;49.968;9.062;2023-05-10T12:35:53;1.40;;;1.30;;
22113;SDS011;11223;49.968;9.062;2023-05-10T12:38:28;1.30;;;1.20;;
22113;SDS011;11223;49.968;9.062;2023-05-10T12:41:02;1.40;;;1.30;;
22113;SDS011;11223;49.968;9.062;2023-05-10T12:43:29;1.23;;;0.90;;
22113;SDS011;11223;49.968;9.062;2023-05-10T12:45:55;2.35;;;1.50;;
22113;SDS011;11223;49.968;9.062;2023-05-10T12:48:21;1.50;;;1.20;;
22113;SDS011;11223;49.968;9.062;2023-05-10T12:50:47;1.40;;;1.30;;
22113;SDS011;11223;49.968;9.062;2023-05-10T12:53:15;1.33;;;1.20;;
22113;SDS011;11223;49.968;9.062;2023-05-10T12:55:42;1.00;;;0.82;;
22113;SDS011;11223;49.968;9.062;2023-05-10T12:58:08;1.20;;;1.10;;
22113;SDS011;11223;49.968;9.062;2023-05-10T13:00:34;1.10;;;1.00;;
22113;SDS011;11223;49.968;9.062;2023-05-10T13:02:59;6.10;;;1.23;;
22113;SDS011;11223;49.968;9.062;2023-05-10T13:05:25;1.33;;;0.97;;
22113;SDS011;11223;49.968;9.062;2023-05-10T13:07:51;1.63;;;1.07;;
22113;SDS011;11223;49.968;9.062;2023-05-10T13:10:16;1.17;;;0.97;;
22113;SDS011;11223;49.968;9.062;2023-05-10T13:12:42;0.97;;;0.83;;
22113;SDS011;11223;49.968;9.062;2023-05-10T13:15:07;1.37;;;1.00;;
22113;SDS011;11223;49.968;9.062;2023-05-10T13:17:33;1.90;;;0.73;;
22113;SDS011;11223;49.968;9.062;2023-05-10T13:19:59;2.07;;;0.87;;
22113;SDS011;11223;49.968;9.062;2023-05-10T13:22:24;2.03;;;1.10;;
22113;SDS011;11223;49.968;9.062;2023-05-10T13:24:50;1.10;;;0.90;;
22113;SDS011;11223;49.968;9.062;2023-05-10T13:27:16;0.80;;;0.70;;
22113;SDS011;11223;49.968;9.062;2023-05-10T13:29:41;3.23;;;0.90;;
22113;SDS011;11223;49.968;9.062;2023-05-10T13:32:07;1.33;;;0.97;;
22113;SDS011;11223;49.968;9.062;2023-05-10T13:34:33;1.30;;;1.00;;
22113;SDS011;11223;49.968;9.062;2023-05-10T13:37:00;1.23;;;1.13;;
22113;SDS011;11223;49.968;9.062;2023-05-10T13:39:26;1.23;;;1.13;;
22113;SDS011;11223;49.968;9.062;2023-05-10T13:41:52;1.30;;;0.90;;
22113;SDS011;11223;49.968;9.062;2023-05-10T13:44:17;1.60;;;0.70;;
22113;SDS011;11223;49.968;9.062;2023-05-10T13:46:43;1.10;;;0.80;;
22113;SDS011;11223;49.968;9.062;2023-05-10T13:49:09;2.28;;;1.27;;
22113;SDS011;11223;49.968;9.062;2023-05-10T13:51:35;1.53;;;0.60;;
22113;SDS011;11223;49.968;9.062;2023-05-10T13:54:01;1.00;;;0.90;;
22113;SDS011;11223;49.968;9.062;2023-05-10T13:56:27;1.70;;;1.20;;
22113;SDS011;11223;49.968;9.062;2023-05-10T13:58:52;1.57;;;1.10;;
22113;SDS011;11223;49.968;9.062;2023-05-10T14:01:18;1.77;;;1.67;;
22113;SDS011;11223;49.968;9.062;2023-05-10T14:03:44;3.47;;;0.80;;
22113;SDS011;11223;49.968;9.062;2023-05-10T14:06:09;1.80;;;0.80;;
22113;SDS011;11223;49.968;9.062;2023-05-10T14:08:35;1.20;;;0.90;;
22113;SDS011;11223;49.968;9.062;2023-05-10T14:11:01;2.20;;;0.90;;
22113;SDS011;11223;49.968;9.062;2023-05-10T14:13:26;1.00;;;0.70;;
22113;SDS011;11223;49.968;9.062;2023-05-10T14:15:53;3.05;;;0.60;;
22113;SDS011;11223;49.968;9.062;2023-05-10T14:18:19;3.55;;;1.13;;
22113;SDS011;11223;49.968;9.062;2023-05-10T14:20:45;0.80;;;0.70;;
22113;SDS011;11223;49.968;9.062;2023-05-10T14:23:10;0.90;;;0.80;;
22113;SDS011;11223;49.968;9.062;2023-05-10T14:25:37;2.17;;;1.00;;
22113;SDS011;11223;49.968;9.062;2023-05-10T14:28:04;1.10;;;0.82;;
22113;SDS011;11223;49.968;9.062;2023-05-10T14:30:31;1.70;;;0.90;;
22113;SDS011;11223;49.968;9.062;2023-05-10T14:32:57;3.72;;;1.02;;
22113;SDS011;11223;49.968;9.062;2023-05-10T14:35:23;1.40;;;1.07;;
22113;SDS011;11223;49.968;9.062;2023-05-10T14:37:49;1.37;;;1.00;;
22113;SDS011;11223;49.968;9.062;2023-05-10T14:40:15;1.00;;;0.87;;
22113;SDS011;11223;49.968;9.062;2023-05-10T14:42:42;3.38;;;0.90;;
22113;SDS011;11223;49.968;9.062;2023-05-10T14:48:41;1.25;;;1.00;;
22113;SDS011;11223;49.968;9.062;2023-05-10T14:51:07;1.58;;;1.33;;
22113;SDS011;11223;49.968;9.062;2023-05-10T14:53:32;1.07;;;0.97;;
22113;SDS011;11223;49.968;9.062;2023-05-10T14:59:20;1.35;;;1.25;;
22113;SDS011;11223;49.968;9.062;2023-05-10T15:01:46;1.17;;;0.70;;
22113;SDS011;11223;49.968;9.062;2023-05-10T15:04:11;1.50;;;1.00;;
22113;SDS011;11223;49.968;9.062;2023-05-10T15:06:38;1.15;;;1.05;;
22113;SDS011;11223;49.968;9.062;2023-05-10T15:09:07;1.40;;;1.00;;
22113;SDS011;11223;49.968;9.062;2023-05-10T15:11:32;2.20;;;1.40;;
22113;SDS011;11223;49.968;9.062;2023-05-10T15:13:58;1.20;;;0.90;;
22113;SDS011;11223;49.968;9.062;2023-05-10T15:16:23;3.20;;;1.20;;
22113;SDS011;11223;49.968;9.062;2023-05-10T15:18:49;1.20;;;1.07;;
22113;SDS011;11223;49.968;9.062;2023-05-10T15:21:15;1.50;;;1.00;;
22113;SDS011;11223;49.968;9.062;2023-05-10T15:23:42;2.00;;;1.20;;
22113;SDS011;11223;49.968;9.062;2023-05-10T15:26:07;2.33;;;1.17;;
22113;SDS011;11223;49.968;9.062;2023-05-10T15:28:33;1.20;;;1.10;;